sensor_id;sensor_type;location;lat;lon;timestamp;P1;durP1;ratioP1;P2;durP2;ratioP2
46845;SDS011;33947;46.804;134.252;2023-04-24T00:00:48;8.27;;;3.75;;
46845;SDS011;33947;46.804;134.252;2023-04-24T00:03:54;10.02;;;3.50;;
46845;SDS011;33947;46.804;134.252;2023-04-24T00:06:59;11.70;;;3.40;;
46845;SDS011;33947;46.804;134.252;2023-04-24T00:10:04;7.93;;;2.50;;
46845;SDS011;33947;46.804;134.252;2023-04-24T00:13:09;4.57;;;2.20;;
46845;SDS011;33947;46.804;134.252;2023-04-24T00:16:13;6.20;;;2.28;;
46845;SDS011;33947;46.804;134.252;2023-04-24T00:19:18;6.15;;;2.65;;
46845;SDS011;33947;46.804;134.252;2023-04-24T00:22:24;21.48;;;2.80;;
46845;SDS011;33947;46.804;134.252;2023-04-24T00:25:29;5.95;;;2.22;;
46845;SDS011;33947;46.804;134.252;2023-04-24T00:28:34;24.48;;;2.60;;
46845;SDS011;33947;46.804;134.252;2023-04-24T00:31:38;15.15;;;2.97;;
46845;SDS011;33947;46.804;134.252;2023-04-24T00:34:43;5.85;;;2.25;;
46845;SDS011;33947;46.804;134.252;2023-04-24T00:37:47;6.72;;;2.03;;
46845;SDS011;33947;46.804;134.252;2023-04-24T00:40:51;3.22;;;1.88;;
46845;SDS011;33947;46.804;134.252;2023-04-24T00:43:57;5.60;;;2.33;;
46845;SDS011;33947;46.804;134.252;2023-04-24T00:47:02;5.30;;;1.80;;
46845;SDS011;33947;46.804;134.252;2023-04-24T00:50:06;24.02;;;3.15;;
46845;SDS011;33947;46.804;134.252;2023-04-24T00:53:10;17.05;;;2.67;;
46845;SDS011;33947;46.804;134.252;2023-04-24T00:56:14;8.32;;;2.25;;
46845;SDS011;33947;46.804;134.252;2023-04-24T00:59:19;9.77;;;2.07;;
46845;SDS011;33947;46.804;134.252;2023-04-24T01:02:23;6.03;;;2.10;;
46845;SDS011;33947;46.804;134.252;2023-04-24T01:08:33;6.47;;;2.05;;
46845;SDS011;33947;46.804;134.252;2023-04-24T01:11:40;3.55;;;1.80;;
46845;SDS011;33947;46.804;134.252;2023-04-24T01:14:49;4.22;;;1.83;;
46845;SDS011;33947;46.804;134.252;2023-04-24T01:17:53;12.43;;;2.33;;
46845;SDS011;33947;46.804;134.252;2023-04-24T01:20:59;7.43;;;2.33;;
46845;SDS011;33947;46.804;134.252;2023-04-24T01:24:06;10.25;;;3.17;;
46845;SDS011;33947;46.804;134.252;2023-04-24T01:27:14;5.07;;;1.88;;
46845;SDS011;33947;46.804;134.252;2023-04-24T01:30:20;23.95;;;3.10;;
46845;SDS011;33947;46.804;134.252;2023-04-24T01:33:25;3.17;;;2.13;;
46845;SDS011;33947;46.804;134.252;2023-04-24T01:36:30;4.72;;;1.83;;
46845;SDS011;33947;46.804;134.252;2023-04-24T01:42:40;15.13;;;3.47;;
46845;SDS011;33947;46.804;134.252;2023-04-24T01:45:45;3.30;;;1.95;;
46845;SDS011;33947;46.804;134.252;2023-04-24T01:48:50;23.85;;;2.67;;
46845;SDS011;33947;46.804;134.252;2023-04-24T01:51:55;2.53;;;1.73;;
46845;SDS011;33947;46.804;134.252;2023-04-24T01:55:00;10.95;;;1.95;;
46845;SDS011;33947;46.804;134.252;2023-04-24T01:58:05;8.82;;;2.50;;
46845;SDS011;33947;46.804;134.252;2023-04-24T02:01:14;6.05;;;2.10;;
46845;SDS011;33947;46.804;134.252;2023-04-24T02:04:22;5.40;;;1.90;;
46845;SDS011;33947;46.804;134.252;2023-04-24T02:10:32;5.13;;;1.90;;
46845;SDS011;33947;46.804;134.252;2023-04-24T02:13:37;3.70;;;1.77;;
46845;SDS011;33947;46.804;134.252;2023-04-24T02:19:47;4.10;;;2.00;;
46845;SDS011;33947;46.804;134.252;2023-04-24T02:22:52;4.82;;;2.10;;
46845;SDS011;33947;46.804;134.252;2023-04-24T02:25:56;7.20;;;2.08;;
46845;SDS011;33947;46.804;134.252;2023-04-24T02:29:00;8.88;;;2.30;;
46845;SDS011;33947;46.804;134.252;2023-04-24T02:32:05;4.15;;;1.80;;
46845;SDS011;33947;46.804;134.252;2023-04-24T02:35:09;6.53;;;2.10;;
46845;SDS011;33947;46.804;134.252;2023-04-24T02:38:14;7.40;;;2.20;;
46845;SDS011;33947;46.804;134.252;2023-04-24T02:41:19;3.75;;;2.35;;
46845;SDS011;33947;46.804;134.252;2023-04-24T02:44:24;8.82;;;2.20;;
46845;SDS011;33947;46.804;134.252;2023-04-24T02:47:32;4.90;;;2.45;;
46845;SDS011;33947;46.804;134.252;2023-04-24T02:50:42;3.40;;;2.13;;
46845;SDS011;33947;46.804;134.252;2023-04-24T02:53:53;8.18;;;2.45;;
46845;SDS011;33947;46.804;134.252;2023-04-24T02:56:57;12.00;;;3.10;;
46845;SDS011;33947;46.804;134.252;2023-04-24T03:00:03;9.32;;;2.47;;
46845;SDS011;33947;46.804;134.252;2023-04-24T03:03:10;9.35;;;2.03;;
46845;SDS011;33947;46.804;134.252;2023-04-24T03:06:15;4.50;;;2.17;;
46845;SDS011;33947;46.804;134.252;2023-04-24T03:09:19;4.72;;;2.20;;
46845;SDS011;33947;46.804;134.252;2023-04-24T03:15:58;10.30;;;2.47;;
46845;SDS011;33947;46.804;134.252;2023-04-24T03:19:02;4.43;;;2.30;;
46845;SDS011;33947;46.804;134.252;2023-04-24T03:22:21;5.82;;;2.00;;
46845;SDS011;33947;46.804;134.252;2023-04-24T03:28:31;4.57;;;2.17;;
46845;SDS011;33947;46.804;134.252;2023-04-24T03:31:38;4.18;;;2.65;;
46845;SDS011;33947;46.804;134.252;2023-04-24T03:34:42;5.50;;;2.60;;
46845;SDS011;33947;46.804;134.252;2023-04-24T03:37:49;6.00;;;2.65;;
46845;SDS011;33947;46.804;134.252;2023-04-24T03:41:12;6.60;;;2.42;;
46845;SDS011;33947;46.804;134.252;2023-04-24T03:44:23;2.75;;;2.10;;
46845;SDS011;33947;46.804;134.252;2023-04-24T03:47:28;9.32;;;3.78;;
46845;SDS011;33947;46.804;134.252;2023-04-24T03:50:36;14.02;;;2.72;;
46845;SDS011;33947;46.804;134.252;2023-04-24T03:53:43;9.18;;;2.60;;
46845;SDS011;33947;46.804;134.252;2023-04-24T03:56:50;6.90;;;3.92;;
46845;SDS011;33947;46.804;134.252;2023-04-24T03:59:55;4.20;;;2.47;;
46845;SDS011;33947;46.804;134.252;2023-04-24T04:03:00;5.70;;;2.33;;
46845;SDS011;33947;46.804;134.252;2023-04-24T04:06:05;7.20;;;2.65;;
46845;SDS011;33947;46.804;134.252;2023-04-24T04:09:10;10.18;;;3.63;;
46845;SDS011;33947;46.804;134.252;2023-04-24T04:12:15;4.00;;;2.40;;
46845;SDS011;33947;46.804;134.252;2023-04-24T04:15:19;13.20;;;2.90;;
46845;SDS011;33947;46.804;134.252;2023-04-24T04:18:24;5.40;;;2.70;;
46845;SDS011;33947;46.804;134.252;2023-04-24T04:21:29;6.43;;;2.20;;
46845;SDS011;33947;46.804;134.252;2023-04-24T04:24:47;8.52;;;3.65;;
46845;SDS011;33947;46.804;134.252;2023-04-24T04:27:57;5.28;;;2.45;;
46845;SDS011;33947;46.804;134.252;2023-04-24T04:31:03;7.05;;;3.90;;
46845;SDS011;33947;46.804;134.252;2023-04-24T04:34:07;5.97;;;2.97;;
46845;SDS011;33947;46.804;134.252;2023-04-24T04:37:12;12.37;;;4.23;;
46845;SDS011;33947;46.804;134.252;2023-04-24T04:40:40;2.88;;;2.10;;
46845;SDS011;33947;46.804;134.252;2023-04-24T04:43:46;10.43;;;3.45;;
46845;SDS011;33947;46.804;134.252;2023-04-24T04:46:51;26.08;;;4.30;;
46845;SDS011;33947;46.804;134.252;2023-04-24T04:50:04;4.13;;;2.30;;
46845;SDS011;33947;46.804;134.252;2023-04-24T04:53:09;6.67;;;2.60;;
46845;SDS011;33947;46.804;134.252;2023-04-24T04:56:14;4.88;;;2.67;;
46845;SDS011;33947;46.804;134.252;2023-04-24T04:59:20;5.40;;;2.60;;
46845;SDS011;33947;46.804;134.252;2023-04-24T05:02:31;9.77;;;2.90;;
46845;SDS011;33947;46.804;134.252;2023-04-24T05:05:36;20.45;;;5.57;;
46845;SDS011;33947;46.804;134.252;2023-04-24T05:08:47;11.98;;;10.07;;
46845;SDS011;33947;46.804;134.252;2023-04-24T05:12:04;19.83;;;5.32;;
46845;SDS011;33947;46.804;134.252;2023-04-24T05:15:20;9.60;;;3.65;;
46845;SDS011;33947;46.804;134.252;2023-04-24T05:18:25;25.60;;;16.17;;
46845;SDS011;33947;46.804;134.252;2023-04-24T05:21:29;23.67;;;13.43;;
46845;SDS011;33947;46.804;134.252;2023-04-24T05:24:35;13.63;;;8.50;;
46845;SDS011;33947;46.804;134.252;2023-04-24T05:27:57;52.53;;;35.80;;
46845;SDS011;33947;46.804;134.252;2023-04-24T05:31:02;28.73;;;14.98;;
46845;SDS011;33947;46.804;134.252;2023-04-24T05:34:07;68.82;;;42.20;;
46845;SDS011;33947;46.804;134.252;2023-04-24T05:37:14;11.25;;;6.75;;
46845;SDS011;33947;46.804;134.252;2023-04-24T05:40:19;7.30;;;5.07;;
46845;SDS011;33947;46.804;134.252;2023-04-24T05:43:24;8.20;;;7.00;;
46845;SDS011;33947;46.804;134.252;2023-04-24T05:46:28;13.57;;;10.15;;
46845;SDS011;33947;46.804;134.252;2023-04-24T05:49:32;7.00;;;3.80;;
46845;SDS011;33947;46.804;134.252;2023-04-24T05:52:40;11.18;;;8.00;;
46845;SDS011;33947;46.804;134.252;2023-04-24T05:55:57;10.02;;;4.00;;
46845;SDS011;33947;46.804;134.252;2023-04-24T05:59:02;16.50;;;9.90;;
46845;SDS011;33947;46.804;134.252;2023-04-24T06:02:06;8.10;;;5.30;;
46845;SDS011;33947;46.804;134.252;2023-04-24T06:05:11;35.15;;;24.52;;
46845;SDS011;33947;46.804;134.252;2023-04-24T06:08:16;17.88;;;12.13;;
46845;SDS011;33947;46.804;134.252;2023-04-24T06:11:22;20.65;;;4.00;;
46845;SDS011;33947;46.804;134.252;2023-04-24T06:14:26;25.38;;;6.90;;
46845;SDS011;33947;46.804;134.252;2023-04-24T06:17:49;29.83;;;10.38;;
46845;SDS011;33947;46.804;134.252;2023-04-24T06:20:55;6.43;;;2.85;;
46845;SDS011;33947;46.804;134.252;2023-04-24T06:24:00;10.87;;;3.87;;
46845;SDS011;33947;46.804;134.252;2023-04-24T06:27:03;6.93;;;2.78;;
46845;SDS011;33947;46.804;134.252;2023-04-24T06:30:08;6.78;;;2.80;;
46845;SDS011;33947;46.804;134.252;2023-04-24T06:36:23;7.47;;;3.45;;
46845;SDS011;33947;46.804;134.252;2023-04-24T06:39:28;6.50;;;2.35;;
46845;SDS011;33947;46.804;134.252;2023-04-24T06:42:32;5.47;;;2.22;;
46845;SDS011;33947;46.804;134.252;2023-04-24T06:45:38;4.43;;;2.13;;
46845;SDS011;33947;46.804;134.252;2023-04-24T06:48:43;6.40;;;2.40;;
46845;SDS011;33947;46.804;134.252;2023-04-24T06:51:47;4.47;;;2.37;;
46845;SDS011;33947;46.804;134.252;2023-04-24T06:54:52;5.25;;;2.25;;
46845;SDS011;33947;46.804;134.252;2023-04-24T06:58:05;4.00;;;2.10;;
46845;SDS011;33947;46.804;134.252;2023-04-24T07:01:10;8.13;;;2.97;;
46845;SDS011;33947;46.804;134.252;2023-04-24T07:04:14;8.15;;;3.28;;
46845;SDS011;33947;46.804;134.252;2023-04-24T07:07:19;5.63;;;2.83;;
46845;SDS011;33947;46.804;134.252;2023-04-24T07:10:27;6.80;;;2.50;;
46845;SDS011;33947;46.804;134.252;2023-04-24T07:13:32;4.53;;;2.47;;
46845;SDS011;33947;46.804;134.252;2023-04-24T07:16:38;5.03;;;2.60;;
46845;SDS011;33947;46.804;134.252;2023-04-24T07:19:43;5.18;;;2.85;;
46845;SDS011;33947;46.804;134.252;2023-04-24T07:22:48;9.67;;;2.50;;
46845;SDS011;33947;46.804;134.252;2023-04-24T07:25:52;5.15;;;3.03;;
46845;SDS011;33947;46.804;134.252;2023-04-24T07:28:57;14.23;;;4.07;;
46845;SDS011;33947;46.804;134.252;2023-04-24T07:32:01;6.47;;;2.43;;
46845;SDS011;33947;46.804;134.252;2023-04-24T07:35:05;20.02;;;2.80;;
46845;SDS011;33947;46.804;134.252;2023-04-24T07:38:10;12.63;;;4.10;;
46845;SDS011;33947;46.804;134.252;2023-04-24T07:41:14;11.90;;;2.75;;
46845;SDS011;33947;46.804;134.252;2023-04-24T07:44:19;5.78;;;2.60;;
46845;SDS011;33947;46.804;134.252;2023-04-24T07:47:23;13.90;;;2.95;;
46845;SDS011;33947;46.804;134.252;2023-04-24T07:50:28;4.23;;;2.60;;
46845;SDS011;33947;46.804;134.252;2023-04-24T07:53:33;7.70;;;3.15;;
46845;SDS011;33947;46.804;134.252;2023-04-24T07:56:38;10.27;;;3.60;;
46845;SDS011;33947;46.804;134.252;2023-04-24T07:59:46;10.88;;;3.70;;
46845;SDS011;33947;46.804;134.252;2023-04-24T08:02:49;11.50;;;5.05;;
46845;SDS011;33947;46.804;134.252;2023-04-24T08:05:54;5.80;;;3.87;;
46845;SDS011;33947;46.804;134.252;2023-04-24T08:08:59;6.38;;;2.97;;
46845;SDS011;33947;46.804;134.252;2023-04-24T08:12:03;15.15;;;5.97;;
46845;SDS011;33947;46.804;134.252;2023-04-24T08:15:08;10.85;;;4.78;;
46845;SDS011;33947;46.804;134.252;2023-04-24T08:18:13;6.00;;;2.90;;
46845;SDS011;33947;46.804;134.252;2023-04-24T08:21:19;71.43;;;30.33;;
46845;SDS011;33947;46.804;134.252;2023-04-24T08:24:24;11.73;;;4.72;;
46845;SDS011;33947;46.804;134.252;2023-04-24T08:27:28;6.75;;;4.25;;
46845;SDS011;33947;46.804;134.252;2023-04-24T08:30:33;8.88;;;4.95;;
46845;SDS011;33947;46.804;134.252;2023-04-24T08:33:37;7.13;;;4.25;;
46845;SDS011;33947;46.804;134.252;2023-04-24T08:36:44;8.98;;;4.40;;
46845;SDS011;33947;46.804;134.252;2023-04-24T08:39:49;14.75;;;7.15;;
46845;SDS011;33947;46.804;134.252;2023-04-24T08:42:54;12.10;;;7.25;;
46845;SDS011;33947;46.804;134.252;2023-04-24T08:45:59;9.13;;;4.68;;
46845;SDS011;33947;46.804;134.252;2023-04-24T08:49:06;13.90;;;5.72;;
46845;SDS011;33947;46.804;134.252;2023-04-24T08:52:10;10.43;;;5.65;;
46845;SDS011;33947;46.804;134.252;2023-04-24T08:55:16;8.05;;;4.03;;
46845;SDS011;33947;46.804;134.252;2023-04-24T08:58:21;9.05;;;4.00;;
46845;SDS011;33947;46.804;134.252;2023-04-24T09:01:29;9.30;;;3.70;;
46845;SDS011;33947;46.804;134.252;2023-04-24T09:04:37;12.95;;;7.32;;
46845;SDS011;33947;46.804;134.252;2023-04-24T09:07:44;7.70;;;4.60;;
46845;SDS011;33947;46.804;134.252;2023-04-24T09:10:53;8.52;;;4.38;;
46845;SDS011;33947;46.804;134.252;2023-04-24T09:13:58;13.10;;;4.67;;
46845;SDS011;33947;46.804;134.252;2023-04-24T09:17:03;7.50;;;4.63;;
46845;SDS011;33947;46.804;134.252;2023-04-24T09:20:08;8.95;;;4.78;;
46845;SDS011;33947;46.804;134.252;2023-04-24T09:23:17;25.40;;;5.40;;
46845;SDS011;33947;46.804;134.252;2023-04-24T09:26:21;6.72;;;4.55;;
46845;SDS011;33947;46.804;134.252;2023-04-24T09:29:25;10.13;;;6.75;;
46845;SDS011;33947;46.804;134.252;2023-04-24T09:32:30;9.27;;;5.18;;
46845;SDS011;33947;46.804;134.252;2023-04-24T09:35:35;16.35;;;6.90;;
46845;SDS011;33947;46.804;134.252;2023-04-24T09:38:40;14.37;;;5.77;;
46845;SDS011;33947;46.804;134.252;2023-04-24T09:41:48;8.98;;;5.15;;
46845;SDS011;33947;46.804;134.252;2023-04-24T09:44:59;12.10;;;5.00;;
46845;SDS011;33947;46.804;134.252;2023-04-24T09:48:15;8.23;;;5.30;;
46845;SDS011;33947;46.804;134.252;2023-04-24T09:51:33;7.80;;;5.50;;
46845;SDS011;33947;46.804;134.252;2023-04-24T09:54:41;11.68;;;7.10;;
46845;SDS011;33947;46.804;134.252;2023-04-24T09:57:49;13.75;;;7.00;;
46845;SDS011;33947;46.804;134.252;2023-04-24T10:00:55;14.50;;;6.90;;
46845;SDS011;33947;46.804;134.252;2023-04-24T10:04:00;15.98;;;8.23;;
46845;SDS011;33947;46.804;134.252;2023-04-24T10:07:05;19.13;;;8.20;;
46845;SDS011;33947;46.804;134.252;2023-04-24T10:10:10;11.73;;;8.05;;
46845;SDS011;33947;46.804;134.252;2023-04-24T10:13:14;15.00;;;6.53;;
46845;SDS011;33947;46.804;134.252;2023-04-24T10:16:19;12.65;;;7.50;;
46845;SDS011;33947;46.804;134.252;2023-04-24T10:19:26;14.50;;;7.53;;
46845;SDS011;33947;46.804;134.252;2023-04-24T10:22:30;13.13;;;7.57;;
46845;SDS011;33947;46.804;134.252;2023-04-24T10:25:36;12.20;;;7.03;;
46845;SDS011;33947;46.804;134.252;2023-04-24T10:28:40;17.10;;;7.05;;
46845;SDS011;33947;46.804;134.252;2023-04-24T10:31:46;13.40;;;7.45;;
46845;SDS011;33947;46.804;134.252;2023-04-24T10:34:52;10.90;;;6.95;;
46845;SDS011;33947;46.804;134.252;2023-04-24T10:37:58;8.85;;;5.90;;
46845;SDS011;33947;46.804;134.252;2023-04-24T10:41:09;13.98;;;6.35;;
46845;SDS011;33947;46.804;134.252;2023-04-24T10:44:19;13.45;;;7.70;;
46845;SDS011;33947;46.804;134.252;2023-04-24T10:47:26;19.05;;;9.57;;
46845;SDS011;33947;46.804;134.252;2023-04-24T10:53:50;27.85;;;14.27;;
46845;SDS011;33947;46.804;134.252;2023-04-24T11:00:38;26.00;;;12.45;;
46845;SDS011;33947;46.804;134.252;2023-04-24T11:03:50;151.57;;;71.35;;
46845;SDS011;33947;46.804;134.252;2023-04-24T11:06:59;91.63;;;52.15;;
46845;SDS011;33947;46.804;134.252;2023-04-24T11:10:04;55.53;;;30.40;;
46845;SDS011;33947;46.804;134.252;2023-04-24T11:13:08;116.68;;;65.65;;
46845;SDS011;33947;46.804;134.252;2023-04-24T11:16:15;62.78;;;36.45;;
46845;SDS011;33947;46.804;134.252;2023-04-24T11:19:28;28.20;;;14.73;;
46845;SDS011;33947;46.804;134.252;2023-04-24T11:22:33;26.73;;;14.30;;
46845;SDS011;33947;46.804;134.252;2023-04-24T11:25:38;22.17;;;11.85;;
46845;SDS011;33947;46.804;134.252;2023-04-24T11:28:46;25.20;;;12.60;;
46845;SDS011;33947;46.804;134.252;2023-04-24T11:31:51;22.02;;;10.07;;
46845;SDS011;33947;46.804;134.252;2023-04-24T11:34:57;13.63;;;7.90;;
46845;SDS011;33947;46.804;134.252;2023-04-24T11:38:07;44.45;;;22.90;;
46845;SDS011;33947;46.804;134.252;2023-04-24T11:41:26;47.88;;;23.92;;
46845;SDS011;33947;46.804;134.252;2023-04-24T11:44:31;46.70;;;22.35;;
46845;SDS011;33947;46.804;134.252;2023-04-24T11:47:38;68.50;;;31.35;;
46845;SDS011;33947;46.804;134.252;2023-04-24T11:50:45;44.00;;;21.98;;
46845;SDS011;33947;46.804;134.252;2023-04-24T11:53:50;42.53;;;20.65;;
46845;SDS011;33947;46.804;134.252;2023-04-24T11:57:05;53.57;;;26.33;;
46845;SDS011;33947;46.804;134.252;2023-04-24T12:00:15;56.70;;;25.35;;
46845;SDS011;33947;46.804;134.252;2023-04-24T12:03:21;70.18;;;34.05;;
46845;SDS011;33947;46.804;134.252;2023-04-24T12:06:26;74.28;;;35.28;;
46845;SDS011;33947;46.804;134.252;2023-04-24T12:09:54;67.10;;;34.55;;
46845;SDS011;33947;46.804;134.252;2023-04-24T12:13:04;50.63;;;27.98;;
46845;SDS011;33947;46.804;134.252;2023-04-24T12:16:08;52.75;;;29.00;;
46845;SDS011;33947;46.804;134.252;2023-04-24T12:19:17;49.67;;;29.10;;
46845;SDS011;33947;46.804;134.252;2023-04-24T12:22:24;46.03;;;24.52;;
46845;SDS011;33947;46.804;134.252;2023-04-24T12:25:30;51.90;;;26.75;;
46845;SDS011;33947;46.804;134.252;2023-04-24T12:28:37;38.17;;;22.80;;
46845;SDS011;33947;46.804;134.252;2023-04-24T12:31:42;34.40;;;20.55;;
46845;SDS011;33947;46.804;134.252;2023-04-24T12:34:47;26.20;;;13.93;;
46845;SDS011;33947;46.804;134.252;2023-04-24T12:37:55;31.48;;;13.52;;
46845;SDS011;33947;46.804;134.252;2023-04-24T12:41:03;27.73;;;13.75;;
46845;SDS011;33947;46.804;134.252;2023-04-24T12:44:10;31.60;;;16.05;;
46845;SDS011;33947;46.804;134.252;2023-04-24T12:47:15;30.20;;;17.38;;
46845;SDS011;33947;46.804;134.252;2023-04-24T12:50:19;28.40;;;15.55;;
46845;SDS011;33947;46.804;134.252;2023-04-24T12:53:24;26.10;;;15.20;;
46845;SDS011;33947;46.804;134.252;2023-04-24T12:59:34;92.38;;;39.17;;
46845;SDS011;33947;46.804;134.252;2023-04-24T13:02:38;95.78;;;32.47;;
46845;SDS011;33947;46.804;134.252;2023-04-24T13:05:43;93.07;;;32.55;;
46845;SDS011;33947;46.804;134.252;2023-04-24T13:08:48;71.13;;;28.60;;
46845;SDS011;33947;46.804;134.252;2023-04-24T13:11:52;69.70;;;27.15;;
46845;SDS011;33947;46.804;134.252;2023-04-24T13:14:57;72.93;;;27.63;;
46845;SDS011;33947;46.804;134.252;2023-04-24T13:18:05;59.80;;;24.33;;
46845;SDS011;33947;46.804;134.252;2023-04-24T13:21:09;38.17;;;19.05;;
46845;SDS011;33947;46.804;134.252;2023-04-24T13:24:13;47.35;;;18.50;;
46845;SDS011;33947;46.804;134.252;2023-04-24T13:27:19;41.65;;;17.40;;
46845;SDS011;33947;46.804;134.252;2023-04-24T13:30:24;59.70;;;23.50;;
46845;SDS011;33947;46.804;134.252;2023-04-24T13:33:28;40.28;;;19.70;;
46845;SDS011;33947;46.804;134.252;2023-04-24T13:36:33;69.53;;;29.25;;
46845;SDS011;33947;46.804;134.252;2023-04-24T13:39:37;42.55;;;19.52;;
46845;SDS011;33947;46.804;134.252;2023-04-24T13:42:42;76.93;;;33.47;;
46845;SDS011;33947;46.804;134.252;2023-04-24T13:45:47;55.67;;;25.30;;
46845;SDS011;33947;46.804;134.252;2023-04-24T13:48:51;67.25;;;28.77;;
46845;SDS011;33947;46.804;134.252;2023-04-24T13:51:56;90.00;;;36.20;;
46845;SDS011;33947;46.804;134.252;2023-04-24T13:55:01;44.75;;;21.50;;
46845;SDS011;33947;46.804;134.252;2023-04-24T13:58:06;51.25;;;24.92;;
46845;SDS011;33947;46.804;134.252;2023-04-24T14:01:10;64.25;;;28.63;;
46845;SDS011;33947;46.804;134.252;2023-04-24T14:04:15;53.22;;;23.27;;
46845;SDS011;33947;46.804;134.252;2023-04-24T14:07:21;45.60;;;21.02;;
46845;SDS011;33947;46.804;134.252;2023-04-24T14:10:25;37.33;;;19.55;;
46845;SDS011;33947;46.804;134.252;2023-04-24T14:13:30;51.30;;;24.15;;
46845;SDS011;33947;46.804;134.252;2023-04-24T14:16:35;44.35;;;22.38;;
46845;SDS011;33947;46.804;134.252;2023-04-24T14:19:39;61.50;;;26.00;;
46845;SDS011;33947;46.804;134.252;2023-04-24T14:22:44;55.28;;;25.73;;
46845;SDS011;33947;46.804;134.252;2023-04-24T14:25:49;61.57;;;27.67;;
46845;SDS011;33947;46.804;134.252;2023-04-24T14:28:55;60.92;;;27.13;;
46845;SDS011;33947;46.804;134.252;2023-04-24T14:32:17;56.13;;;26.55;;
46845;SDS011;33947;46.804;134.252;2023-04-24T14:35:21;76.78;;;29.95;;
46845;SDS011;33947;46.804;134.252;2023-04-24T14:38:26;73.82;;;29.13;;
46845;SDS011;33947;46.804;134.252;2023-04-24T14:41:30;64.93;;;26.10;;
46845;SDS011;33947;46.804;134.252;2023-04-24T14:44:35;53.95;;;24.58;;
46845;SDS011;33947;46.804;134.252;2023-04-24T14:47:41;44.38;;;20.02;;
46845;SDS011;33947;46.804;134.252;2023-04-24T14:50:45;60.00;;;24.60;;
46845;SDS011;33947;46.804;134.252;2023-04-24T14:53:49;25.08;;;12.20;;
46845;SDS011;33947;46.804;134.252;2023-04-24T14:56:54;38.72;;;18.17;;
46845;SDS011;33947;46.804;134.252;2023-04-24T15:00:00;32.30;;;14.60;;
46845;SDS011;33947;46.804;134.252;2023-04-24T15:03:06;26.15;;;13.75;;
46845;SDS011;33947;46.804;134.252;2023-04-24T15:06:12;27.88;;;13.95;;
46845;SDS011;33947;46.804;134.252;2023-04-24T15:09:16;27.58;;;12.60;;
46845;SDS011;33947;46.804;134.252;2023-04-24T15:12:20;26.15;;;13.57;;
46845;SDS011;33947;46.804;134.252;2023-04-24T15:15:25;36.15;;;16.48;;
46845;SDS011;33947;46.804;134.252;2023-04-24T15:18:30;36.40;;;16.47;;
46845;SDS011;33947;46.804;134.252;2023-04-24T15:21:35;35.35;;;16.63;;
46845;SDS011;33947;46.804;134.252;2023-04-24T15:24:40;42.00;;;17.17;;
46845;SDS011;33947;46.804;134.252;2023-04-24T15:27:45;44.72;;;18.30;;
46845;SDS011;33947;46.804;134.252;2023-04-24T15:30:49;44.63;;;18.20;;
46845;SDS011;33947;46.804;134.252;2023-04-24T15:33:54;44.25;;;18.92;;
46845;SDS011;33947;46.804;134.252;2023-04-24T15:36:59;26.80;;;13.38;;
46845;SDS011;33947;46.804;134.252;2023-04-24T15:40:04;27.02;;;12.98;;
46845;SDS011;33947;46.804;134.252;2023-04-24T15:43:10;41.28;;;19.00;;
46845;SDS011;33947;46.804;134.252;2023-04-24T15:46:14;52.50;;;18.73;;
46845;SDS011;33947;46.804;134.252;2023-04-24T15:49:19;33.03;;;16.20;;
46845;SDS011;33947;46.804;134.252;2023-04-24T15:52:24;31.00;;;16.13;;
46845;SDS011;33947;46.804;134.252;2023-04-24T15:55:28;33.17;;;16.30;;
46845;SDS011;33947;46.804;134.252;2023-04-24T15:58:33;32.63;;;15.23;;
46845;SDS011;33947;46.804;134.252;2023-04-24T16:01:38;29.65;;;12.48;;
46845;SDS011;33947;46.804;134.252;2023-04-24T16:04:44;25.42;;;13.23;;
46845;SDS011;33947;46.804;134.252;2023-04-24T16:07:50;24.38;;;12.90;;
46845;SDS011;33947;46.804;134.252;2023-04-24T16:10:54;26.35;;;12.45;;
46845;SDS011;33947;46.804;134.252;2023-04-24T16:13:59;29.90;;;14.15;;
46845;SDS011;33947;46.804;134.252;2023-04-24T16:17:03;37.88;;;15.82;;
46845;SDS011;33947;46.804;134.252;2023-04-24T16:20:08;35.93;;;16.97;;
46845;SDS011;33947;46.804;134.252;2023-04-24T16:23:13;32.50;;;14.20;;
46845;SDS011;33947;46.804;134.252;2023-04-24T16:26:18;27.33;;;13.52;;
46845;SDS011;33947;46.804;134.252;2023-04-24T16:29:23;21.90;;;11.02;;
46845;SDS011;33947;46.804;134.252;2023-04-24T16:32:27;27.10;;;11.50;;
46845;SDS011;33947;46.804;134.252;2023-04-24T16:35:32;24.42;;;11.90;;
46845;SDS011;33947;46.804;134.252;2023-04-24T16:38:37;26.80;;;12.95;;
46845;SDS011;33947;46.804;134.252;2023-04-24T16:41:42;33.27;;;15.03;;
46845;SDS011;33947;46.804;134.252;2023-04-24T16:47:51;44.25;;;19.88;;
46845;SDS011;33947;46.804;134.252;2023-04-24T16:50:56;39.33;;;18.40;;
46845;SDS011;33947;46.804;134.252;2023-04-24T16:54:00;40.42;;;17.55;;
46845;SDS011;33947;46.804;134.252;2023-04-24T16:57:05;35.05;;;16.38;;
46845;SDS011;33947;46.804;134.252;2023-04-24T17:00:10;45.20;;;17.35;;
46845;SDS011;33947;46.804;134.252;2023-04-24T17:03:15;47.45;;;16.05;;
46845;SDS011;33947;46.804;134.252;2023-04-24T17:06:20;30.88;;;13.52;;
46845;SDS011;33947;46.804;134.252;2023-04-24T17:09:24;30.92;;;13.10;;
46845;SDS011;33947;46.804;134.252;2023-04-24T17:12:29;26.83;;;13.82;;
46845;SDS011;33947;46.804;134.252;2023-04-24T17:15:34;32.17;;;13.95;;
46845;SDS011;33947;46.804;134.252;2023-04-24T17:18:39;30.63;;;14.80;;
46845;SDS011;33947;46.804;134.252;2023-04-24T17:21:43;35.38;;;15.23;;
46845;SDS011;33947;46.804;134.252;2023-04-24T17:24:48;32.87;;;15.53;;
46845;SDS011;33947;46.804;134.252;2023-04-24T17:27:53;31.42;;;14.98;;
46845;SDS011;33947;46.804;134.252;2023-04-24T17:30:58;24.25;;;12.52;;
46845;SDS011;33947;46.804;134.252;2023-04-24T17:34:03;28.53;;;13.53;;
46845;SDS011;33947;46.804;134.252;2023-04-24T17:37:08;25.73;;;13.40;;
46845;SDS011;33947;46.804;134.252;2023-04-24T17:40:12;30.50;;;13.38;;
46845;SDS011;33947;46.804;134.252;2023-04-24T17:43:17;24.35;;;12.57;;
46845;SDS011;33947;46.804;134.252;2023-04-24T17:49:27;27.48;;;12.20;;
46845;SDS011;33947;46.804;134.252;2023-04-24T17:52:32;29.03;;;14.13;;
46845;SDS011;33947;46.804;134.252;2023-04-24T17:55:37;29.10;;;13.27;;
46845;SDS011;33947;46.804;134.252;2023-04-24T18:01:48;30.30;;;15.50;;
46845;SDS011;33947;46.804;134.252;2023-04-24T18:04:53;33.53;;;16.35;;
46845;SDS011;33947;46.804;134.252;2023-04-24T18:07:58;31.60;;;16.77;;
46845;SDS011;33947;46.804;134.252;2023-04-24T18:11:04;40.28;;;17.45;;
46845;SDS011;33947;46.804;134.252;2023-04-24T18:14:08;34.72;;;17.02;;
46845;SDS011;33947;46.804;134.252;2023-04-24T18:17:13;41.13;;;18.48;;
46845;SDS011;33947;46.804;134.252;2023-04-24T18:20:17;32.92;;;18.73;;
46845;SDS011;33947;46.804;134.252;2023-04-24T18:23:22;37.75;;;18.25;;
46845;SDS011;33947;46.804;134.252;2023-04-24T18:26:27;32.90;;;17.73;;
46845;SDS011;33947;46.804;134.252;2023-04-24T18:29:31;38.05;;;18.63;;
46845;SDS011;33947;46.804;134.252;2023-04-24T18:32:36;43.17;;;19.38;;